Time;durP1;ratioP1;P1;durP2;ratioP2;P2;SDS_P1;SDS_P2;PMS_P1;PMS_P2;Temp;Humidity;BMP_temperature;BMP_pressure;BME280_temperature;BME280_humidity;BME280_pressure;Samples;Min_cycle;Max_cycle;Signal;HPM_P1;HPM_P2
2023/06/25 00:01:52;;;;;;;10.90;7.97;;;;;;;20.58;96.35;100821.69;4953560;28;20074;-75
2023/06/25 00:04:21;;;;;;;11.60;8.73;;;;;;;20.40;97.45;100809.72;4925574;28;20316;-74
2023/06/25 00:06:48;;;;;;;10.07;8.75;;;;;;;20.36;98.36;100815.44;4929174;28;20043;-74
2023/06/25 00:09:14;;;;;;;10.00;9.00;;;;;;;20.26;99.30;100807.28;4944603;28;20185;-77
2023/06/25 00:11:41;;;;;;;9.52;8.52;;;;;;;20.23;100.00;100813.75;4910102;28;20708;-74
2023/06/25 00:14:08;;;;;;;9.55;8.55;;;;;;;20.14;100.00;100811.81;4931740;28;20062;-74
2023/06/25 00:16:35;;;;;;;10.88;8.10;;;;;;;20.14;100.00;100816.34;4934876;28;20174;-75
2023/06/25 00:19:04;;;;;;;9.48;8.57;;;;;;;20.11;100.00;100819.28;4933431;29;20530;-74
2023/06/25 00:21:32;;;;;;;10.70;8.32;;;;;;;20.06;100.00;100810.72;4933512;28;20043;-75
2023/06/25 00:23:58;;;;;;;9.73;8.65;;;;;;;20.03;100.00;100816.31;4935286;29;20044;-75
2023/06/25 00:26:27;;;;;;;10.07;8.68;;;;;;;19.99;100.00;100814.88;4929991;28;20047;-73
2023/06/25 00:28:54;;;;;;;10.27;8.52;;;;;;;19.86;100.00;100791.63;4928163;29;20154;-76
2023/06/25 00:31:21;;;;;;;9.82;8.82;;;;;;;19.98;100.00;100807.78;4943199;28;20055;-74
2023/06/25 00:33:49;;;;;;;10.75;8.50;;;;;;;19.93;100.00;100811.69;4943547;28;20091;-74
2023/06/25 00:36:17;;;;;;;10.63;9.23;;;;;;;19.89;100.00;100807.53;4938523;28;20054;-74
2023/06/25 00:38:44;;;;;;;11.57;8.73;;;;;;;19.85;100.00;100806.06;4948613;28;20039;-75
2023/06/25 00:41:13;;;;;;;10.05;8.63;;;;;;;19.82;100.00;100803.63;4946890;28;20178;-74
2023/06/25 00:43:43;;;;;;;9.02;8.13;;;;;;;19.78;100.00;100795.91;4945521;28;20075;-74
2023/06/25 00:46:15;;;;;;;10.95;9.00;;;;;;;19.80;100.00;100805.56;4939923;28;20369;-74
2023/06/25 00:48:45;;;;;;;10.68;8.85;;;;;;;19.84;100.00;100796.28;4932460;29;20485;-74
2023/06/25 00:51:17;;;;;;;8.98;8.07;;;;;;;19.90;100.00;100801.19;4919861;28;20070;-74
2023/06/25 00:53:45;;;;;;;10.68;8.27;;;;;;;19.79;100.00;100787.75;4940235;29;20046;-75
2023/06/25 00:56:12;;;;;;;11.38;8.38;;;;;;;19.87;100.00;100798.72;4925804;29;20134;-74
2023/06/25 00:58:41;;;;;;;9.43;8.38;;;;;;;19.87;100.00;100804.09;4947941;28;20043;-75
2023/06/25 01:01:20;;;;;;;8.70;7.78;;;;;;;19.86;100.00;100798.84;4919219;28;20055;-74
2023/06/25 01:03:54;;;;;;;10.00;7.75;;;;;;;19.82;100.00;100795.56;4911200;28;20085;-75
2023/06/25 01:06:29;;;;;;;11.00;8.15;;;;;;;19.80;100.00;100800.19;4941896;28;20543;-74
2023/06/25 01:09:00;;;;;;;11.27;8.32;;;;;;;19.70;100.00;100798.34;4939544;28;20057;-76
2023/06/25 01:11:30;;;;;;;9.93;8.10;;;;;;;19.62;100.00;100796.28;4948859;28;20051;-74
2023/06/25 01:13:58;;;;;;;;;;;;;;;19.63;100.00;100802.50;4951806;28;20509;-73
2023/06/25 01:16:26;;;;;;;10.00;7.85;;;;;;;19.58;100.00;100800.16;4931272;28;19938;-75
2023/06/25 01:18:58;;;;;;;8.82;7.95;;;;;;;19.57;100.00;100793.06;4934829;29;20050;-73
2023/06/25 01:21:31;;;;;;;11.20;8.15;;;;;;;19.56;100.00;100791.38;4940695;28;20066;-74
2023/06/25 01:24:01;;;;;;;8.95;7.88;;;;;;;19.50;100.00;100792.72;4950344;28;20047;-75
2023/06/25 01:26:28;;;;;;;9.32;8.25;;;;;;;19.50;100.00;100807.97;4919683;28;20063;-74
2023/06/25 01:28:55;;;;;;;9.38;8.20;;;;;;;19.49;100.00;100790.13;4949094;28;20495;-74
2023/06/25 01:31:25;;;;;;;9.52;8.52;;;;;;;19.46;100.00;100796.56;4952017;28;20066;-73
2023/06/25 01:33:53;;;;;;;8.48;7.63;;;;;;;19.42;100.00;100784.34;4951882;28;20492;-73
2023/06/25 01:36:19;;;;;;;8.77;7.88;;;;;;;19.46;100.00;100788.53;4949470;28;20054;-74
2023/06/25 01:38:46;;;;;;;8.57;7.50;;;;;;;19.45;100.00;100783.25;4936912;28;20049;-74
2023/06/25 01:41:13;;;;;;;12.43;8.23;;;;;;;19.44;100.00;100782.41;4949027;28;20074;-73
2023/06/25 01:43:40;;;;;;;8.88;7.57;;;;;;;19.42;100.00;100783.50;4953090;28;20513;-74
2023/06/25 01:46:07;;;;;;;9.23;8.05;;;;;;;19.43;100.00;100779.84;4948662;28;20043;-73
2023/06/25 01:48:35;;;;;;;8.93;8.00;;;;;;;19.45;100.00;100777.91;4953913;28;20144;-74
2023/06/25 01:51:02;;;;;;;9.35;8.38;;;;;;;19.44;100.00;100779.72;4954823;28;20211;-75
2023/06/25 01:53:28;;;;;;;9.43;7.72;;;;;;;19.46;100.00;100775.09;4922682;28;20055;-75
2023/06/25 01:55:55;;;;;;;11.27;8.27;;;;;;;19.44;100.00;100766.28;4949466;28;20652;-75
2023/06/25 01:58:22;;;;;;;9.80;8.73;;;;;;;19.43;100.00;100758.34;4953320;28;20047;-75
2023/06/25 02:00:48;;;;;;;10.20;8.55;;;;;;;19.45;100.00;100767.16;4952953;28;20054;-75
2023/06/25 02:03:16;;;;;;;9.90;8.50;;;;;;;19.39;100.00;100757.72;4957252;28;20550;-76
2023/06/25 02:05:43;;;;;;;9.82;8.02;;;;;;;19.37;100.00;100759.69;4950295;28;20476;-75
2023/06/25 02:08:15;;;;;;;9.32;8.32;;;;;;;19.35;100.00;100756.28;4951831;28;20130;-74
2023/06/25 02:10:41;;;;;;;12.88;8.52;;;;;;;19.28;100.00;100761.25;4955765;28;20043;-74
2023/06/25 02:13:09;;;;;;;11.77;9.75;;;;;;;19.17;100.00;100755.88;4940630;29;20103;-73
2023/06/25 02:15:36;;;;;;;12.32;9.23;;;;;;;19.09;100.00;100757.41;4955086;28;20106;-74
2023/06/25 02:18:03;;;;;;;10.77;9.25;;;;;;;18.94;100.00;100732.59;4939876;28;20066;-74
2023/06/25 02:20:37;;;;;;;12.98;9.70;;;;;;;19.04;100.00;100759.63;4954169;28;20051;-74
2023/06/25 02:23:04;;;;;;;10.10;8.95;;;;;;;18.93;100.00;100761.28;4956657;28;20098;-74
2023/06/25 02:25:32;;;;;;;11.07;9.50;;;;;;;18.84;100.00;100745.03;4971769;28;20047;-74
2023/06/25 02:27:58;;;;;;;10.60;9.50;;;;;;;18.79;100.00;100749.88;4954133;29;20055;-74
2023/06/25 02:30:25;;;;;;;11.52;9.88;;;;;;;18.83;100.00;100754.91;4969128;28;20038;-76
2023/06/25 02:32:54;;;;;;;11.10;9.80;;;;;;;18.84;100.00;100748.56;4976066;28;20448;-74
2023/06/25 02:35:20;;;;;;;13.13;10.38;;;;;;;18.84;100.00;100750.38;4968224;28;20527;-75
2023/06/25 02:37:48;;;;;;;12.50;10.13;;;;;;;18.84;100.00;100761.97;4965529;28;20055;-73
2023/06/25 02:40:16;;;;;;;12.63;10.98;;;;;;;18.82;100.00;100746.97;4941050;28;20073;-74
2023/06/25 02:42:43;;;;;;;12.45;10.18;;;;;;;18.81;100.00;100756.84;4937761;28;20059;-74
2023/06/25 02:45:09;;;;;;;12.02;10.43;;;;;;;18.71;100.00;100754.97;4937571;29;20043;-76
2023/06/25 02:47:37;;;;;;;14.40;10.57;;;;;;;18.59;100.00;100754.03;4953347;28;20122;-75
2023/06/25 02:50:06;;;;;;;10.93;9.70;;;;;;;18.50;100.00;100755.56;4943016;28;20043;-74
2023/06/25 02:52:33;;;;;;;13.02;10.88;;;;;;;18.46;100.00;100747.84;4956806;28;20043;-73
2023/06/25 02:55:00;;;;;;;11.95;9.90;;;;;;;18.44;100.00;100747.97;4942646;28;20043;-74
2023/06/25 02:57:29;;;;;;;12.45;10.60;;;;;;;18.44;100.00;100747.97;4933064;28;20043;-73
2023/06/25 02:59:57;;;;;;;14.38;10.27;;;;;;;18.43;100.00;100751.59;4956933;28;20063;-74
2023/06/25 03:02:26;;;;;;;12.20;9.40;;;;;;;18.39;100.00;100747.47;4936075;28;20130;-75
2023/06/25 03:04:54;;;;;;;12.32;10.45;;;;;;;18.40;100.00;100746.50;4958596;28;20054;-73
2023/06/25 03:07:21;;;;;;;11.50;10.25;;;;;;;18.41;100.00;100753.56;4952033;28;20044;-74
2023/06/25 03:09:48;;;;;;;13.80;10.70;;;;;;;18.38;100.00;100751.13;4938555;29;20510;-74
2023/06/25 03:12:16;;;;;;;12.02;10.05;;;;;;;18.42;100.00;100751.72;4961979;28;20051;-79
2023/06/25 03:14:42;;;;;;;12.63;9.85;;;;;;;18.32;100.00;100751.56;4956473;28;20143;-74
2023/06/25 03:17:10;;;;;;;11.80;10.45;;;;;;;18.31;100.00;100746.31;4930415;28;20070;-75
2023/06/25 03:19:37;;;;;;;11.45;10.20;;;;;;;18.32;100.00;100748.88;4937037;28;20058;-75
2023/06/25 03:22:04;;;;;;;11.35;10.15;;;;;;;18.36;100.00;100752.19;4938656;28;20047;-74
2023/06/25 03:24:33;;;;;;;11.80;9.45;;;;;;;18.35;100.00;100758.53;4954000;28;20055;-74
2023/06/25 03:27:00;;;;;;;11.85;9.88;;;;;;;18.18;100.00;100727.59;4928140;29;20050;-74
2023/06/25 03:29:27;;;;;;;10.85;9.07;;;;;;;18.21;100.00;100736.28;4935357;28;20474;-74
2023/06/25 03:31:58;;;;;;;14.30;11.07;;;;;;;18.21;100.00;100751.50;4957142;28;20083;-74
2023/06/25 03:34:25;;;;;;;11.57;10.30;;;;;;;18.16;100.00;100749.13;4950961;28;20050;-75
2023/06/25 03:36:51;;;;;;;10.50;8.77;;;;;;;18.13;100.00;100748.50;4922990;29;20056;-74
2023/06/25 03:39:18;;;;;;;12.43;9.23;;;;;;;18.22;100.00;100740.66;4928428;28;20510;-74
2023/06/25 03:41:45;;;;;;;14.05;10.00;;;;;;;18.42;100.00;100751.72;4939709;28;20042;-74
2023/06/25 03:44:12;;;;;;;13.27;9.27;;;;;;;18.47;100.00;100750.41;4954164;28;20118;-76
2023/06/25 03:46:38;;;;;;;11.45;9.65;;;;;;;18.47;100.00;100744.19;4946023;28;20048;-73
2023/06/25 03:49:05;;;;;;;11.43;9.63;;;;;;;18.44;100.00;100736.38;4952927;28;20058;-75
2023/06/25 03:51:31;;;;;;;11.32;9.50;;;;;;;18.46;100.00;100750.53;4959982;28;20621;-74
2023/06/25 03:53:58;;;;;;;12.65;9.75;;;;;;;18.43;100.00;100742.72;4942997;29;20043;-73
2023/06/25 03:56:25;;;;;;;12.25;9.43;;;;;;;18.41;100.00;100742.84;4929546;29;21584;-73
2023/06/25 03:58:52;;;;;;;10.88;9.57;;;;;;;18.41;100.00;100748.22;4936914;28;20039;-74
2023/06/25 04:01:19;;;;;;;12.55;9.60;;;;;;;18.36;100.00;100739.66;4951689;28;20049;-74
2023/06/25 04:03:46;;;;;;;10.70;9.30;;;;;;;18.32;100.00;100727.44;4958454;28;20483;-74
2023/06/25 04:06:13;;;;;;;11.35;9.95;;;;;;;18.38;100.00;100734.16;4952779;28;20051;-74
2023/06/25 04:08:40;;;;;;;10.48;9.35;;;;;;;18.40;100.00;100735.78;4929030;29;20121;-74
2023/06/25 04:11:08;;;;;;;11.57;9.32;;;;;;;18.44;100.00;100725.66;4950906;28;20155;-74
2023/06/25 04:13:37;;;;;;;10.88;9.40;;;;;;;18.46;100.00;100735.31;4934656;28;20129;-74
2023/06/25 04:16:09;;;;;;;9.57;8.57;;;;;;;18.46;100.00;100727.25;4952464;28;21467;-75
2023/06/25 04:18:44;;;;;;;11.18;9.00;;;;;;;18.54;100.00;100724.88;4948374;28;20441;-74
2023/06/25 04:21:10;;;;;;;10.35;8.68;;;;;;;18.62;100.00;100729.69;4936115;29;20051;-74
2023/06/25 04:23:38;;;;;;;9.82;8.23;;;;;;;18.70;100.00;100731.81;4951818;28;20134;-74
2023/06/25 04:26:04;;;;;;;12.00;9.10;;;;;;;18.73;100.00;100736.94;4918341;28;20635;-74
2023/06/25 04:28:31;;;;;;;9.60;8.50;;;;;;;18.72;100.00;100729.88;4937983;28;20509;-74
2023/06/25 04:30:58;;;;;;;13.35;9.45;;;;;;;18.74;100.00;100735.94;4936970;28;20051;-74
2023/06/25 04:33:26;;;;;;;11.77;9.05;;;;;;;18.75;100.00;100735.81;4935854;29;20417;-74
2023/06/25 04:35:53;;;;;;;11.32;9.20;;;;;;;18.75;100.00;100735.81;4932031;28;20054;-74
2023/06/25 04:38:20;;;;;;;10.25;8.23;;;;;;;18.76;100.00;100726.81;4932727;29;20063;-73
2023/06/25 04:40:47;;;;;;;10.93;8.93;;;;;;;18.88;100.00;100742.00;4931761;28;20039;-74
2023/06/25 04:43:13;;;;;;;10.35;9.18;;;;;;;18.85;100.00;100719.91;4938542;29;20055;-75
2023/06/25 04:45:41;;;;;;;12.73;8.60;;;;;;;18.95;100.00;100730.78;4925288;29;20157;-74
2023/06/25 04:48:08;;;;;;;12.60;9.23;;;;;;;19.00;100.00;100739.34;4932365;29;20413;-74
2023/06/25 04:50:35;;;;;;;10.15;8.27;;;;;;;18.95;100.00;100722.72;4951163;28;20051;-76
2023/06/25 04:53:03;;;;;;;12.60;8.75;;;;;;;19.07;100.00;100735.19;4934766;28;20469;-75
2023/06/25 04:55:29;;;;;;;10.50;8.70;;;;;;;19.09;100.00;100728.75;4948613;28;20071;-74
2023/06/25 04:57:56;;;;;;;10.57;8.63;;;;;;;19.14;100.00;100729.25;4951424;28;20050;-74
2023/06/25 05:00:23;;;;;;;11.00;9.82;;;;;;;19.21;100.00;100733.16;4934018;29;20134;-74
2023/06/25 05:02:50;;;;;;;14.50;9.02;;;;;;;19.21;100.00;100718.88;4949066;28;20053;-73
2023/06/25 05:05:16;;;;;;;9.02;8.07;;;;;;;19.35;100.00;100737.47;4935077;28;20098;-74
2023/06/25 05:07:45;;;;;;;11.02;8.80;;;;;;;19.37;100.00;100737.34;4947948;28;20054;-74
2023/06/25 05:10:16;;;;;;;10.75;9.15;;;;;;;19.43;100.00;100747.59;4931312;29;20047;-73
2023/06/25 05:12:45;;;;;;;10.57;7.97;;;;;;;19.49;100.00;100747.13;4953461;28;20170;-74
2023/06/25 05:15:12;;;;;;;9.95;8.95;;;;;;;19.46;100.00;100724.06;4957372;28;20045;-75
2023/06/25 05:17:41;;;;;;;9.65;8.65;;;;;;;19.54;100.00;100735.06;4938600;29;20043;-75
2023/06/25 05:20:09;;;;;;;10.77;8.40;;;;;;;19.58;100.00;100741.91;4955179;28;20081;-76
2023/06/25 05:22:36;;;;;;;12.45;8.40;;;;;;;19.51;100.00;100723.75;4943447;28;20043;-74
2023/06/25 05:25:03;;;;;;;10.90;8.75;;;;;;;19.60;100.00;100739.97;4953843;28;20051;-75
2023/06/25 05:27:30;;;;;;;10.60;8.20;;;;;;;19.75;100.00;100747.78;4945285;29;20087;-75
2023/06/25 05:29:57;;;;;;;11.98;7.60;;;;;;;19.75;100.00;100740.59;4954525;28;20052;-74
2023/06/25 05:32:25;;;;;;;9.43;7.85;;;;;;;19.77;100.00;100740.47;4926706;28;20054;-74
2023/06/25 05:34:53;;;;;;;9.95;7.28;;;;;;;19.88;100.00;100741.31;4955398;28;20047;-74
2023/06/25 05:37:20;;;;;;;9.20;7.72;;;;;;;19.94;100.00;100737.28;4935801;29;20111;-74
2023/06/25 05:39:46;;;;;;;8.63;7.25;;;;;;;20.03;100.00;100741.06;4953421;28;20134;-75
2023/06/25 05:42:13;;;;;;;8.48;7.57;;;;;;;20.10;100.00;100743.13;4940064;28;20340;-74
2023/06/25 05:44:40;;;;;;;9.57;7.55;;;;;;;20.14;100.00;100731.16;4914929;29;20523;-74
2023/06/25 05:47:07;;;;;;;14.02;7.88;;;;;;;20.25;99.09;100736.50;4929661;28;20046;-74
2023/06/25 05:49:33;;;;;;;9.10;6.63;;;;;;;20.33;99.85;100735.84;4934048;29;20070;-74
2023/06/25 05:52:00;;;;;;;9.43;7.50;;;;;;;20.45;98.85;100742.97;4952651;28;20042;-74
2023/06/25 05:54:27;;;;;;;8.32;6.85;;;;;;;20.56;97.64;100737.53;4920825;29;20071;-76
2023/06/25 05:56:56;;;;;;;8.30;7.07;;;;;;;20.69;92.79;100737.38;4944667;28;20046;-75
2023/06/25 05:59:24;;;;;;;8.97;7.23;;;;;;;20.77;92.43;100732.22;4929898;28;20102;-74
2023/06/25 06:01:50;;;;;;;7.22;6.53;;;;;;;20.89;90.52;100741.09;4934536;28;20051;-73
2023/06/25 06:04:17;;;;;;;8.15;6.57;;;;;;;21.01;90.31;100740.91;4931507;29;20510;-74
2023/06/25 06:06:47;;;;;;;9.60;6.88;;;;;;;21.12;87.37;100734.59;4951315;28;20035;-74
2023/06/25 06:09:14;;;;;;;8.02;6.40;;;;;;;21.26;87.52;100734.28;4928076;29;20181;-74
2023/06/25 06:11:43;;;;;;;7.25;6.50;;;;;;;21.55;85.23;100742.56;4950178;28;20114;-74
2023/06/25 06:14:10;;;;;;;8.90;6.32;;;;;;;21.73;83.25;100740.06;4931440;28;20074;-72
2023/06/25 06:16:38;;;;;;;8.10;6.25;;;;;;;21.93;81.04;100736.47;4938708;29;20054;-74
2023/06/25 06:19:06;;;;;;;10.27;6.47;;;;;;;22.27;78.04;100734.31;4948004;28;20569;-75
2023/06/25 06:21:33;;;;;;;6.97;6.13;;;;;;;22.82;74.27;100753.63;4933352;28;20523;-75
2023/06/25 06:24:00;;;;;;;6.88;6.07;;;;;;;23.35;70.06;100745.84;4953891;28;20046;-74
2023/06/25 06:26:27;;;;;;;7.55;5.97;;;;;;;23.97;66.37;100757.06;4936231;28;20047;-74
2023/06/25 06:28:53;;;;;;;9.68;6.22;;;;;;;24.34;64.09;100755.19;4933589;28;20051;-74
2023/06/25 06:31:22;;;;;;;7.28;5.88;;;;;;;24.47;62.51;100731.31;4927671;29;20055;-73
2023/06/25 06:33:49;;;;;;;6.53;5.93;;;;;;;24.85;64.72;100742.88;4954795;28;20618;-74
2023/06/25 06:36:16;;;;;;;6.70;5.95;;;;;;;24.96;59.53;100739.94;4955589;28;20058;-74
2023/06/25 06:38:44;;;;;;;7.32;5.72;;;;;;;25.17;59.50;100745.03;4931826;29;20039;-76
2023/06/25 06:41:11;;;;;;;6.32;5.75;;;;;;;25.23;58.60;100730.81;4952815;28;20047;-74
2023/06/25 06:43:38;;;;;;;7.45;5.80;;;;;;;25.56;57.28;100744.59;4938780;29;20444;-76
2023/06/25 06:46:06;;;;;;;6.90;6.18;;;;;;;25.88;55.48;100731.25;4934835;29;20074;-74
2023/06/25 06:48:34;;;;;;;6.43;5.82;;;;;;;26.22;53.84;100744.78;4938665;28;20134;-75
2023/06/25 06:51:01;;;;;;;7.38;5.53;;;;;;;26.42;55.00;100746.25;4927847;28;20047;-74
2023/06/25 06:53:29;;;;;;;8.48;5.60;;;;;;;26.37;55.06;100739.59;4942089;28;20051;-74
2023/06/25 06:55:55;;;;;;;6.13;5.15;;;;;;;26.54;53.52;100750.34;4938739;29;20125;-75
2023/06/25 06:58:22;;;;;;;6.45;5.65;;;;;;;26.76;52.54;100740.69;4933904;29;20491;-76
2023/06/25 07:00:50;;;;;;;6.90;5.53;;;;;;;26.99;51.35;100721.88;4934496;28;20249;-75
2023/06/25 07:03:17;;;;;;;6.50;5.57;;;;;;;27.10;51.62;100739.72;4940030;28;20070;-75
2023/06/25 07:05:44;;;;;;;6.78;5.32;;;;;;;27.17;48.26;100738.88;4939243;28;20067;-75
2023/06/25 07:08:11;;;;;;;6.53;5.35;;;;;;;27.23;49.32;100740.88;4937535;29;20043;-74
2023/06/25 07:10:37;;;;;;;6.13;5.55;;;;;;;27.28;48.10;100743.09;4950787;28;20047;-74
2023/06/25 07:13:04;;;;;;;4.93;4.40;;;;;;;27.29;47.29;100724.91;4956951;28;20066;-74
2023/06/25 07:15:31;;;;;;;5.45;4.95;;;;;;;27.45;48.92;100733.06;4956157;28;20048;-76
2023/06/25 07:18:00;;;;;;;5.60;5.00;;;;;;;27.65;46.20;100739.84;4937917;28;21077;-75
2023/06/25 07:20:27;;;;;;;5.97;5.40;;;;;;;27.89;45.53;100744.34;4937446;28;20043;-74
2023/06/25 07:22:55;;;;;;;6.85;5.28;;;;;;;27.74;47.35;100725.19;4915514;28;20051;-75
2023/06/25 07:25:22;;;;;;;6.03;5.43;;;;;;;27.47;48.70;100736.44;4936007;29;20054;-74
2023/06/25 07:27:48;;;;;;;6.18;5.32;;;;;;;27.57;48.71;100742.56;4960438;28;20050;-73
2023/06/25 07:30:15;;;;;;;6.70;5.43;;;;;;;27.73;45.48;100736.25;4960982;28;20486;-75
2023/06/25 07:32:42;;;;;;;7.78;5.13;;;;;;;27.83;48.42;100747.78;4951671;28;20134;-74
2023/06/25 07:35:09;;;;;;;6.25;5.35;;;;;;;28.07;45.11;100738.66;4951296;28;20058;-76
2023/06/25 07:37:36;;;;;;;7.32;5.30;;;;;;;28.41;42.41;100735.63;4955497;28;20130;-75
2023/06/25 07:40:06;;;;;;;5.72;5.20;;;;;;;28.68;42.29;100740.56;4950433;28;20058;-74
2023/06/25 07:42:33;;;;;;;6.05;5.50;;;;;;;28.82;40.02;100742.53;4926528;28;20039;-74
2023/06/25 07:44:59;;;;;;;5.90;5.20;;;;;;;28.70;40.32;100730.34;4934137;28;20078;-75
2023/06/25 07:47:28;;;;;;;5.30;4.80;;;;;;;28.93;39.43;100741.28;4952918;28;20110;-77
2023/06/25 07:49:55;;;;;;;5.13;4.72;;;;;;;29.14;40.13;100744.16;4949294;28;20043;-74
2023/06/25 07:52:21;;;;;;;6.47;5.30;;;;;;;29.22;38.83;100740.50;4926554;28;20115;-74
2023/06/25 07:54:49;;;;;;;7.05;5.28;;;;;;;29.22;38.14;100743.25;4956869;28;20069;-75
2023/06/25 07:57:17;;;;;;;5.78;5.18;;;;;;;29.09;38.99;100735.69;4950683;28;20047;-74
2023/06/25 07:59:45;;;;;;;;;;;;;;;29.26;38.98;100736.41;4940693;29;20126;-74
2023/06/25 08:02:23;;;;;;;5.45;4.75;;;;;;;29.44;37.99;100730.59;4948965;28;19961;-76
2023/06/25 08:04:50;;;;;;;7.40;5.47;;;;;;;29.36;38.63;100722.47;4955025;28;20174;-74
2023/06/25 08:07:18;;;;;;;5.72;5.15;;;;;;;28.87;40.49;100731.94;4940083;29;20057;-74
2023/06/25 08:09:47;;;;;;;6.40;5.70;;;;;;;28.77;40.67;100728.59;4939198;28;20106;-74
2023/06/25 08:12:21;;;;;;;7.32;6.05;;;;;;;28.98;39.55;100722.47;4930767;28;20114;-75
2023/06/25 08:14:49;;;;;;;7.30;5.57;;;;;;;28.91;38.65;100700.56;4953500;28;20046;-76
2023/06/25 08:17:16;;;;;;;5.78;5.18;;;;;;;28.67;40.78;100713.50;4949282;28;20111;-76
2023/06/25 08:19:43;;;;;;;7.43;5.32;;;;;;;28.68;40.64;100729.66;4952038;28;20122;-75
2023/06/25 08:22:09;;;;;;;8.30;5.75;;;;;;;28.85;39.15;100728.53;4931793;28;20050;-75
2023/06/25 08:24:36;;;;;;;5.80;5.25;;;;;;;29.03;38.57;100724.66;4931437;28;20421;-76
2023/06/25 08:27:03;;;;;;;5.68;5.18;;;;;;;28.97;38.01;100726.22;4930542;28;20130;-74
2023/06/25 08:29:32;;;;;;;6.05;5.45;;;;;;;29.01;38.60;100707.63;4954366;28;20051;-75
2023/06/25 08:31:58;;;;;;;7.50;5.68;;;;;;;28.95;38.05;100718.25;4925789;28;20082;-75
2023/06/25 08:34:26;;;;;;;6.68;5.70;;;;;;;28.69;38.24;100717.72;4950011;28;20051;-74
2023/06/25 08:36:53;;;;;;;8.90;6.10;;;;;;;28.37;39.35;100718.81;4934065;29;20082;-75
2023/06/25 08:39:20;;;;;;;6.75;5.50;;;;;;;28.45;39.95;100715.19;4932754;29;20549;-76
2023/06/25 08:41:48;;;;;;;6.53;5.75;;;;;;;28.78;39.11;100711.22;4936684;29;20135;-74
2023/06/25 08:44:17;;;;;;;7.88;5.78;;;;;;;29.04;38.12;100715.44;4950944;28;20118;-74
2023/06/25 08:46:48;;;;;;;8.50;5.70;;;;;;;29.09;36.56;100702.13;4947146;28;20043;-74
2023/06/25 08:49:18;;;;;;;5.85;5.25;;;;;;;29.28;36.13;100707.03;4950491;28;20710;-76
2023/06/25 08:51:45;;;;;;;8.82;5.50;;;;;;;29.32;37.16;100698.28;4927532;29;20051;-74
2023/06/25 08:54:14;;;;;;;6.93;5.97;;;;;;;29.29;37.09;100703.25;4936519;28;20039;-75
2023/06/25 08:56:41;;;;;;;6.45;5.65;;;;;;;29.21;36.71;100697.91;4953953;28;20062;-74
2023/06/25 08:59:08;;;;;;;7.57;5.43;;;;;;;29.35;37.40;100699.81;4960271;28;20055;-73
2023/06/25 09:01:35;;;;;;;6.75;5.38;;;;;;;29.56;36.93;100701.84;4932547;29;20114;-74
2023/06/25 09:04:03;;;;;;;6.13;5.53;;;;;;;29.74;35.01;100696.00;4936137;28;20058;-74
2023/06/25 09:06:38;;;;;;;6.13;5.50;;;;;;;29.67;35.01;100690.44;4948352;28;20050;-73
2023/06/25 09:09:24;;;;;;;6.20;5.30;;;;;;;29.73;34.75;100694.31;4952848;28;20048;-75
2023/06/25 09:11:54;;;;;;;5.72;5.15;;;;;;;29.92;33.15;100689.09;4947899;28;20043;-72
2023/06/25 09:14:22;;;;;;;6.00;5.30;;;;;;;30.03;34.16;100693.25;4929021;28;20047;-74
2023/06/25 09:16:51;;;;;;;6.10;5.50;;;;;;;30.05;34.41;100693.94;4934060;29;20058;-74
2023/06/25 09:19:18;;;;;;;7.03;5.60;;;;;;;29.00;35.56;100681.41;4945584;28;20091;-75
2023/06/25 09:21:46;;;;;;;6.13;5.50;;;;;;;28.44;36.07;100688.97;4945977;28;20070;-74
2023/06/25 09:24:22;;;;;;;6.28;5.68;;;;;;;28.11;37.19;100680.13;4944053;29;20110;-75
2023/06/25 09:26:53;;;;;;;6.10;5.50;;;;;;;28.22;37.58;100674.28;4945099;29;20063;-74
2023/06/25 09:29:22;;;;;;;5.50;5.00;;;;;;;28.38;36.86;100670.63;4964097;28;20103;-75
2023/06/25 09:31:51;;;;;;;5.38;4.88;;;;;;;28.43;37.30;100662.75;4964685;28;20046;-74
2023/06/25 09:34:22;;;;;;;6.03;5.18;;;;;;;28.58;36.65;100663.66;4947490;28;20055;-74
2023/06/25 09:36:49;;;;;;;5.40;4.90;;;;;;;28.52;36.01;100661.66;4946876;29;20307;-74
2023/06/25 09:39:16;;;;;;;6.07;4.70;;;;;;;28.56;35.40;100663.00;4962374;28;20047;-73
2023/06/25 09:41:44;;;;;;;5.80;4.80;;;;;;;28.44;36.09;100656.28;4928657;29;20055;-75
2023/06/25 09:44:11;;;;;;;5.40;4.75;;;;;;;28.29;36.95;100648.06;4939034;29;20043;-74
2023/06/25 09:46:40;;;;;;;6.25;5.30;;;;;;;28.44;36.22;100648.97;4957813;28;20507;-75
2023/06/25 09:49:08;;;;;;;;;;;;;;;28.49;36.37;100640.25;4942488;28;20043;-75
2023/06/25 09:51:55;;;;;;;5.00;4.50;;;;;;;28.62;35.84;100646.78;4952747;28;20515;-75
2023/06/25 09:54:24;;;;;;;6.43;5.22;;;;;;;28.45;36.47;100642.50;4958244;28;20158;-74
2023/06/25 09:56:53;;;;;;;5.53;5.03;;;;;;;28.33;36.07;100637.66;4960027;28;20043;-74
2023/06/25 09:59:26;;;;;;;5.75;5.05;;;;;;;28.26;36.39;100624.75;4968189;28;20061;-74
2023/06/25 10:01:54;;;;;;;5.20;4.70;;;;;;;28.45;36.05;100636.19;4956169;28;20103;-74
2023/06/25 10:04:24;;;;;;;8.80;4.70;;;;;;;28.53;36.12;100614.31;4945204;28;20050;-74
2023/06/25 10:06:52;;;;;;;5.57;5.07;;;;;;;28.75;35.74;100620.78;4967137;28;20039;-73
2023/06/25 10:09:19;;;;;;;5.65;4.72;;;;;;;28.79;35.15;100614.81;4953245;28;20043;-74
2023/06/25 10:11:55;;;;;;;5.72;5.07;;;;;;;28.81;36.27;100606.44;4948706;28;20039;-74
2023/06/25 10:14:23;;;;;;;5.90;4.97;;;;;;;29.08;35.35;100624.91;4935306;29;20062;-74
2023/06/25 10:16:55;;;;;;;5.78;5.18;;;;;;;29.11;34.99;100627.28;4935955;29;20718;-75
2023/06/25 10:19:26;;;;;;;5.70;4.70;;;;;;;28.94;35.51;100618.41;4936908;28;20516;-75
2023/06/25 10:22:12;;;;;;;5.53;4.93;;;;;;;29.06;35.50;100612.50;4930408;29;20596;-75
2023/06/25 10:24:39;;;;;;;5.75;5.00;;;;;;;29.22;34.95;100609.59;4937549;28;20373;-74
2023/06/25 10:27:24;;;;;;;5.78;5.20;;;;;;;29.28;34.64;100611.56;4956025;28;20053;-74
2023/06/25 10:29:52;;;;;;;6.13;5.15;;;;;;;29.35;34.52;100604.31;4936998;29;20048;-74
2023/06/25 10:32:23;;;;;;;5.78;4.90;;;;;;;29.34;34.03;100602.63;4950338;28;20047;-73
2023/06/25 10:34:55;;;;;;;5.07;4.68;;;;;;;29.28;34.95;100598.75;4937913;28;20126;-74
2023/06/25 10:37:28;;;;;;;5.97;4.93;;;;;;;29.26;34.74;100592.69;4921706;29;20394;-74
2023/06/25 10:40:07;;;;;;;5.65;4.88;;;;;;;29.27;33.96;100580.72;4932116;29;20047;-74
2023/06/25 10:42:36;;;;;;;5.10;4.60;;;;;;;29.33;33.98;100579.13;4934428;28;20043;-73
2023/06/25 10:45:04;;;;;;;8.13;5.05;;;;;;;29.24;34.71;100589.28;4931214;28;20073;-74
2023/06/25 10:47:32;;;;;;;5.13;4.70;;;;;;;29.24;34.55;100588.44;4921751;28;20051;-73
2023/06/25 10:49:59;;;;;;;6.28;5.05;;;;;;;29.17;34.25;100582.88;4953759;28;20529;-73
2023/06/25 10:52:25;;;;;;;7.07;4.97;;;;;;;29.27;34.22;100588.06;4955231;28;20477;-73
2023/06/25 10:54:55;;;;;;;5.88;5.25;;;;;;;29.37;34.62;100585.88;4957243;28;20039;-73
2023/06/25 10:57:22;;;;;;;5.40;4.90;;;;;;;29.41;33.79;100570.88;4955031;28;20055;-74
2023/06/25 10:59:51;;;;;;;5.38;4.85;;;;;;;29.40;33.95;100558.28;4953928;28;20043;-74
2023/06/25 11:02:20;;;;;;;5.68;5.05;;;;;;;29.58;33.56;100552.41;4950865;28;20043;-75
2023/06/25 11:04:50;;;;;;;6.03;5.15;;;;;;;29.64;34.28;100570.72;4937919;29;20047;-74
2023/06/25 11:07:19;;;;;;;5.97;5.22;;;;;;;29.61;32.54;100565.66;4949935;28;20051;-75
2023/06/25 11:09:57;;;;;;;5.45;4.80;;;;;;;29.41;33.64;100546.31;4950588;28;20054;-74
2023/06/25 11:12:26;;;;;;;6.03;5.03;;;;;;;29.47;33.67;100552.88;4948062;28;21481;-74
2023/06/25 11:14:52;;;;;;;5.67;5.17;;;;;;;29.47;33.37;100559.19;4949601;28;20102;-74
2023/06/25 11:17:23;;;;;;;5.40;4.90;;;;;;;29.52;32.88;100553.16;4920641;28;20051;-74
2023/06/25 11:19:51;;;;;;;5.30;4.80;;;;;;;29.62;32.77;100545.50;4931358;29;20064;-74
2023/06/25 11:22:18;;;;;;;7.28;4.90;;;;;;;29.62;32.92;100529.97;4919817;28;21103;-73
2023/06/25 11:24:45;;;;;;;5.63;5.13;;;;;;;29.79;33.23;100541.50;4955620;28;21037;-74